createdAt,value
2022-11-30T00:00:47.098Z,102
2022-11-30T00:01:40.836Z,101.929
2022-11-30T00:02:41.046Z,102
2022-11-30T00:03:40.920Z,102
2022-11-30T00:04:40.933Z,101.857
2022-11-30T00:04:48.703Z,102
2022-11-30T00:05:48.542Z,102
2022-11-30T00:06:04.425Z,101.929
2022-11-30T00:07:04.456Z,102
2022-11-30T00:08:04.497Z,101.714
2022-11-30T00:09:04.550Z,102
2022-11-30T00:10:04.558Z,102
2022-11-30T00:11:04.594Z,102
2022-11-30T00:12:04.623Z,101.857
2022-11-30T00:13:04.654Z,102
2022-11-30T00:14:04.710Z,102.071
2022-11-30T00:15:04.729Z,102
2022-11-30T00:16:04.766Z,102
2022-11-30T00:17:04.864Z,102
2022-11-30T00:17:55.585Z,101.929
2022-11-30T00:18:55.640Z,102
2022-11-30T00:19:55.641Z,102
2022-11-30T00:20:55.681Z,101.929
2022-11-30T00:21:55.723Z,102
2022-11-30T00:22:55.771Z,101.929
2022-11-30T00:23:55.802Z,101.929
2022-11-30T00:24:55.845Z,101.929
2022-11-30T00:25:55.883Z,101.929
2022-11-30T00:26:55.905Z,101.929
2022-11-30T00:27:55.935Z,101.929
2022-11-30T00:28:55.976Z,101.857
2022-11-30T00:29:56.002Z,101.929
2022-11-30T00:30:56.051Z,101.929
2022-11-30T00:31:56.067Z,101.929
2022-11-30T00:32:56.099Z,101.929
2022-11-30T00:33:56.124Z,101.929
2022-11-30T00:34:56.154Z,102
2022-11-30T00:35:56.203Z,102
2022-11-30T00:36:56.236Z,101.857
2022-11-30T00:37:56.264Z,102
2022-11-30T00:38:56.295Z,101.929
2022-11-30T00:39:56.337Z,101.929
2022-11-30T00:40:56.364Z,101.929
2022-11-30T00:41:56.401Z,101.929
2022-11-30T00:42:56.429Z,101.929
2022-11-30T00:43:56.467Z,101.929
2022-11-30T00:44:56.490Z,101.929
2022-11-30T00:45:56.625Z,102
2022-11-30T00:46:56.552Z,102
2022-11-30T00:47:56.582Z,102
2022-11-30T00:48:56.604Z,101.929
2022-11-30T00:49:56.633Z,102
2022-11-30T00:50:56.664Z,102
2022-11-30T00:51:56.700Z,101.929
2022-11-30T00:52:56.725Z,101.929
2022-11-30T00:53:56.753Z,101.929
2022-11-30T00:54:56.787Z,101.929
2022-11-30T00:55:56.821Z,102
2022-11-30T00:56:56.843Z,101.929
2022-11-30T00:57:56.876Z,101.929
2022-11-30T00:58:56.908Z,101.929
2022-11-30T00:59:56.937Z,101.929
2022-11-30T01:00:57.040Z,101.929
2022-11-30T01:01:56.988Z,102
2022-11-30T01:02:57.020Z,101.929
2022-11-30T01:03:57.046Z,101.929
2022-11-30T01:04:57.080Z,102
2022-11-30T01:05:57.115Z,102
2022-11-30T01:06:57.142Z,101.929
2022-11-30T01:07:57.238Z,102
2022-11-30T01:08:57.192Z,101.929
2022-11-30T01:09:57.221Z,102
2022-11-30T01:10:57.241Z,101.929
2022-11-30T01:11:57.282Z,101.929
2022-11-30T01:12:57.317Z,102.071
2022-11-30T01:13:57.350Z,101.929
2022-11-30T01:14:57.385Z,101.929
2022-11-30T01:15:57.469Z,101.929
2022-11-30T01:16:57.448Z,102
2022-11-30T01:17:57.472Z,101.929
2022-11-30T01:18:57.513Z,101.929
2022-11-30T01:19:57.539Z,101.929
2022-11-30T01:20:57.567Z,101.929
2022-11-30T01:21:57.600Z,101.929
2022-11-30T01:22:57.642Z,101.929
2022-11-30T01:23:57.657Z,101.786
2022-11-30T01:24:57.689Z,101.929
2022-11-30T01:25:57.730Z,101.929
2022-11-30T01:26:57.764Z,101.929
2022-11-30T01:27:57.806Z,101.929
2022-11-30T01:28:57.861Z,101.929
2022-11-30T01:29:57.865Z,101.929
2022-11-30T01:30:31.469Z,102
2022-11-30T01:31:31.414Z,101.929
2022-11-30T01:32:31.447Z,102
2022-11-30T01:33:31.488Z,102
2022-11-30T01:34:31.521Z,102
2022-11-30T01:35:31.562Z,101.929
2022-11-30T01:36:31.610Z,101.929
2022-11-30T01:37:31.615Z,101.929
2022-11-30T01:38:31.656Z,101.929
2022-11-30T01:39:31.695Z,101.929
2022-11-30T01:40:31.730Z,101.929
2022-11-30T01:41:31.759Z,101.929
2022-11-30T01:42:31.774Z,102
2022-11-30T01:43:31.816Z,101.929
2022-11-30T01:44:31.845Z,101.857
2022-11-30T01:45:31.882Z,101.929
2022-11-30T01:46:32.012Z,101.929
2022-11-30T01:47:31.943Z,101.929
2022-11-30T01:48:31.989Z,101.929
2022-11-30T01:49:32.032Z,101.929
2022-11-30T01:50:32.060Z,101.929
2022-11-30T01:51:32.088Z,101.929
2022-11-30T01:52:32.124Z,101.929
2022-11-30T01:53:32.164Z,102
2022-11-30T01:54:32.194Z,101.929
2022-11-30T01:55:32.222Z,101.929
2022-11-30T01:56:32.258Z,101.929
2022-11-30T01:57:32.287Z,101.929
2022-11-30T01:58:32.321Z,102
2022-11-30T01:59:32.351Z,101.929
2022-11-30T02:00:32.387Z,101.929
2022-11-30T02:01:32.424Z,102
2022-11-30T02:02:32.487Z,102
2022-11-30T02:03:32.470Z,101.929
2022-11-30T02:04:32.508Z,102
2022-11-30T02:05:32.522Z,101.929
2022-11-30T02:06:32.554Z,101.857
2022-11-30T02:07:32.730Z,101.929
2022-11-30T02:08:32.795Z,101.929
2022-11-30T02:09:32.646Z,101.929
2022-11-30T02:10:32.749Z,101.929
2022-11-30T02:11:32.722Z,101.929
2022-11-30T02:12:32.752Z,101.929
2022-11-30T02:13:32.780Z,101.929
2022-11-30T02:14:32.809Z,102.071
2022-11-30T02:15:32.897Z,101.929
2022-11-30T02:16:32.877Z,101.929
2022-11-30T02:17:32.904Z,102
2022-11-30T02:18:32.936Z,101.929
2022-11-30T02:19:32.966Z,101.929
2022-11-30T02:20:33.009Z,101.929
2022-11-30T02:21:33.041Z,102
2022-11-30T02:22:33.065Z,101.929
2022-11-30T02:23:39.546Z,101.929
2022-11-30T02:24:33.138Z,101.929
2022-11-30T02:25:33.174Z,101.929
2022-11-30T02:26:33.206Z,101.929
2022-11-30T02:27:33.250Z,101.929
2022-11-30T02:28:33.266Z,101.929
2022-11-30T02:29:33.311Z,101.929
2022-11-30T02:30:33.339Z,101.929
2022-11-30T02:31:33.381Z,101.929
2022-11-30T02:32:33.406Z,101.929
2022-11-30T02:33:33.439Z,101.929
2022-11-30T02:34:33.466Z,101.929
2022-11-30T02:35:33.493Z,101.929
2022-11-30T02:36:33.533Z,101.929
2022-11-30T02:37:33.558Z,101.929
2022-11-30T02:38:33.593Z,101.929
2022-11-30T02:39:33.631Z,101.929
2022-11-30T02:40:33.669Z,101.929
2022-11-30T02:41:37.746Z,101.929
2022-11-30T02:42:33.714Z,101.929
2022-11-30T02:43:33.752Z,101.929
2022-11-30T02:44:33.785Z,101.929
2022-11-30T02:45:33.817Z,101.929
2022-11-30T02:46:33.912Z,101.929
2022-11-30T02:47:33.878Z,101.929
2022-11-30T02:48:33.912Z,101.929
2022-11-30T02:49:33.939Z,101.929
2022-11-30T02:50:33.979Z,101.929
2022-11-30T02:51:34.002Z,101.929
2022-11-30T02:52:34.043Z,101.929
2022-11-30T02:53:34.065Z,101.929
2022-11-30T02:54:34.091Z,102
2022-11-30T02:55:34.127Z,101.929
2022-11-30T02:56:34.158Z,101.857
2022-11-30T02:57:34.180Z,101.929
2022-11-30T02:58:34.215Z,101.929
2022-11-30T02:59:34.256Z,101.929
2022-11-30T03:00:34.278Z,101.929
2022-11-30T03:01:34.346Z,101.929
2022-11-30T03:02:34.438Z,101.929
2022-11-30T03:03:34.391Z,102
2022-11-30T03:04:34.415Z,101.929
2022-11-30T03:05:34.439Z,101.929
2022-11-30T03:06:34.478Z,101.929
2022-11-30T03:07:34.520Z,101.929
2022-11-30T03:08:34.561Z,101.929
2022-11-30T03:09:34.563Z,101.929
2022-11-30T03:10:34.599Z,101.857
2022-11-30T03:11:34.624Z,101.929
2022-11-30T03:12:34.660Z,101.929
2022-11-30T03:13:34.691Z,101.929
2022-11-30T03:14:34.722Z,101.929
2022-11-30T03:15:34.804Z,101.929
2022-11-30T03:16:34.779Z,101.929
2022-11-30T03:17:34.815Z,101.929
2022-11-30T03:18:34.850Z,101.857
2022-11-30T03:19:34.885Z,101.929
2022-11-30T03:20:34.915Z,101.929
2022-11-30T03:21:34.944Z,101.929
2022-11-30T03:22:34.974Z,101.929
2022-11-30T03:23:35.008Z,101.929
2022-11-30T03:24:35.030Z,101.857
2022-11-30T03:25:35.068Z,101.929
2022-11-30T03:26:35.093Z,101.857
2022-11-30T03:27:35.127Z,101.929
2022-11-30T03:28:35.156Z,101.929
2022-11-30T03:29:35.189Z,102
2022-11-30T03:30:35.225Z,101.857
2022-11-30T03:31:35.309Z,101.857
2022-11-30T03:32:35.284Z,101.929
2022-11-30T03:33:35.305Z,101.929
2022-11-30T03:34:35.329Z,102
2022-11-30T03:35:35.362Z,102
2022-11-30T03:36:35.397Z,102
2022-11-30T03:37:35.443Z,101.929
2022-11-30T03:38:35.467Z,101.929
2022-11-30T03:39:35.507Z,101.929
2022-11-30T03:40:35.539Z,101.929
2022-11-30T03:41:35.567Z,101.857
2022-11-30T03:42:35.598Z,101.929
2022-11-30T03:43:35.637Z,101.929
2022-11-30T03:44:35.662Z,101.857
2022-11-30T03:45:35.700Z,101.857
2022-11-30T03:46:35.848Z,101.857
2022-11-30T03:47:35.759Z,101.929
2022-11-30T03:48:35.785Z,101.929
2022-11-30T03:49:35.812Z,101.929
2022-11-30T03:50:35.857Z,102
2022-11-30T03:51:35.879Z,101.929
2022-11-30T03:52:35.915Z,102
2022-11-30T03:53:35.942Z,101.929
2022-11-30T03:54:35.969Z,101.857
2022-11-30T03:55:36.006Z,102
2022-11-30T03:56:36.045Z,101.786
2022-11-30T03:57:36.072Z,101.857
2022-11-30T03:58:36.101Z,102
2022-11-30T03:59:36.141Z,102
2022-11-30T04:00:36.178Z,101.857
2022-11-30T04:01:36.285Z,102.071
2022-11-30T04:02:41.524Z,101.857
2022-11-30T04:03:36.262Z,102
2022-11-30T04:04:36.296Z,102
2022-11-30T04:05:36.327Z,101.929
2022-11-30T04:06:36.357Z,101.857
2022-11-30T04:07:36.413Z,102
2022-11-30T04:08:36.411Z,101.929
2022-11-30T04:09:36.444Z,102
2022-11-30T04:10:36.474Z,101.929
2022-11-30T04:11:36.509Z,102
2022-11-30T04:12:36.540Z,101.857
2022-11-30T04:13:36.575Z,102
2022-11-30T04:14:36.600Z,102
2022-11-30T04:15:36.645Z,101.929
2022-11-30T04:16:36.674Z,102
2022-11-30T04:17:36.708Z,102
2022-11-30T04:18:36.737Z,101.857
2022-11-30T04:19:36.779Z,102
2022-11-30T04:20:40.382Z,101.857
2022-11-30T04:21:36.848Z,101.929
2022-11-30T04:22:36.873Z,102.143
2022-11-30T04:23:36.912Z,102
2022-11-30T04:24:36.933Z,101.857
2022-11-30T04:25:36.959Z,101.929
2022-11-30T04:26:37.006Z,101.929
2022-11-30T04:27:37.029Z,101.857
2022-11-30T04:28:37.066Z,102
2022-11-30T04:29:37.098Z,102
2022-11-30T04:30:37.121Z,101.857
2022-11-30T04:31:37.210Z,102
2022-11-30T04:32:37.198Z,102
2022-11-30T04:33:37.236Z,102
2022-11-30T04:34:37.259Z,101.929
2022-11-30T04:35:37.291Z,102
2022-11-30T04:36:37.335Z,102
2022-11-30T04:37:37.365Z,102
2022-11-30T04:38:37.394Z,102.143
2022-11-30T04:39:37.418Z,101.857
2022-11-30T04:40:37.467Z,102
2022-11-30T04:41:37.498Z,101.929
2022-11-30T04:42:37.519Z,102
2022-11-30T04:43:37.556Z,101.857
2022-11-30T04:44:37.586Z,102
2022-11-30T04:45:37.614Z,102
2022-11-30T04:46:37.735Z,102
2022-11-30T04:47:37.674Z,102
2022-11-30T04:48:37.705Z,102
2022-11-30T04:49:37.748Z,102.286
2022-11-30T04:50:37.781Z,102
2022-11-30T04:51:37.795Z,102
2022-11-30T04:52:37.837Z,102
2022-11-30T04:53:37.871Z,102
2022-11-30T04:54:37.907Z,101.857
2022-11-30T04:55:37.944Z,102
2022-11-30T04:56:37.974Z,102
2022-11-30T04:57:38.006Z,101.929
2022-11-30T04:58:38.034Z,102
2022-11-30T04:59:38.068Z,101.857
2022-11-30T05:00:38.093Z,101.929
2022-11-30T05:01:38.223Z,101.929
2022-11-30T05:02:38.157Z,102
2022-11-30T05:03:38.186Z,102
2022-11-30T05:04:38.246Z,101.857
2022-11-30T05:05:38.259Z,101.929
2022-11-30T05:06:38.284Z,101.857
2022-11-30T05:07:38.379Z,102
2022-11-30T05:08:38.363Z,102
2022-11-30T05:09:38.385Z,101.929
2022-11-30T05:10:38.412Z,101.929
2022-11-30T05:11:38.450Z,102.214
2022-11-30T05:12:38.492Z,102
2022-11-30T05:13:38.532Z,102
2022-11-30T05:14:38.562Z,101.857
2022-11-30T05:15:38.597Z,102
2022-11-30T05:16:38.690Z,102
2022-11-30T05:17:38.703Z,102.143
2022-11-30T05:18:38.717Z,102
2022-11-30T05:19:38.745Z,102
2022-11-30T05:20:38.772Z,102
2022-11-30T05:21:42.694Z,102
2022-11-30T05:22:38.845Z,101.857
2022-11-30T05:23:38.872Z,102.143
2022-11-30T05:24:38.910Z,102
2022-11-30T05:25:38.943Z,102
2022-11-30T05:26:38.970Z,102
2022-11-30T05:27:39.001Z,102
2022-11-30T05:28:39.022Z,102.143
2022-11-30T05:29:39.051Z,102
2022-11-30T05:30:39.084Z,102.143
2022-11-30T05:31:39.120Z,102
2022-11-30T05:32:39.141Z,102
2022-11-30T05:33:39.182Z,102
2022-11-30T05:34:50.002Z,102.143
2022-11-30T05:35:39.235Z,102
2022-11-30T05:36:39.267Z,102.214
2022-11-30T05:37:39.297Z,102
2022-11-30T05:38:39.330Z,102.143
2022-11-30T05:39:39.364Z,102
2022-11-30T05:40:39.405Z,102.143
2022-11-30T05:41:39.438Z,102
2022-11-30T05:42:39.467Z,102
2022-11-30T05:43:39.489Z,102.071
2022-11-30T05:44:39.517Z,102.143
2022-11-30T05:45:39.550Z,102.143
2022-11-30T05:46:40.969Z,102
2022-11-30T05:47:39.610Z,102.071
2022-11-30T05:48:39.656Z,102
2022-11-30T05:49:39.690Z,102
2022-11-30T05:50:39.720Z,101.929
2022-11-30T05:51:39.751Z,102.143
2022-11-30T05:52:39.773Z,102
2022-11-30T05:53:39.806Z,101.929
2022-11-30T05:54:39.842Z,102.214
2022-11-30T05:55:39.874Z,102
2022-11-30T05:56:39.903Z,102
2022-11-30T05:57:39.943Z,101.929
2022-11-30T05:58:39.969Z,102
2022-11-30T05:59:39.994Z,101.929
2022-11-30T06:00:40.028Z,101.929
2022-11-30T06:01:40.174Z,102.143
2022-11-30T06:02:40.190Z,102.143
2022-11-30T06:03:40.119Z,102
2022-11-30T06:04:40.156Z,102
2022-11-30T06:05:40.182Z,102.143
2022-11-30T06:06:40.226Z,102.143
2022-11-30T06:07:40.302Z,102
2022-11-30T06:08:40.294Z,102
2022-11-30T06:09:40.330Z,102
2022-11-30T06:10:40.362Z,102.214
2022-11-30T06:11:40.382Z,102
2022-11-30T06:12:40.416Z,102
2022-11-30T06:13:40.453Z,102
2022-11-30T06:14:40.482Z,102.143
2022-11-30T06:15:40.510Z,102.143
2022-11-30T06:16:40.607Z,102
2022-11-30T06:17:40.570Z,102.214
2022-11-30T06:18:40.607Z,102.143
2022-11-30T06:19:40.634Z,102.143
2022-11-30T06:20:40.662Z,102.143
2022-11-30T06:21:40.692Z,102.071
2022-11-30T06:22:40.723Z,102.071
2022-11-30T06:23:40.751Z,102.143
2022-11-30T06:24:40.770Z,101.929
2022-11-30T06:25:40.798Z,101.929
2022-11-30T06:26:40.831Z,102.143
2022-11-30T06:27:40.863Z,102.071
2022-11-30T06:28:45.336Z,102.143
2022-11-30T06:29:40.921Z,102.143
2022-11-30T06:30:40.950Z,102.143
2022-11-30T06:31:41.036Z,102.143
2022-11-30T06:32:41.013Z,102
2022-11-30T06:33:41.052Z,102.143
2022-11-30T06:34:41.091Z,101.929
2022-11-30T06:35:41.121Z,102.143
2022-11-30T06:36:41.139Z,101.929
2022-11-30T06:37:41.165Z,102.143
2022-11-30T06:38:41.202Z,102.143
2022-11-30T06:40:05.545Z,102
2022-11-30T06:40:41.263Z,102
2022-11-30T06:41:41.287Z,102
2022-11-30T06:42:41.320Z,102
2022-11-30T06:43:41.346Z,102.143
2022-11-30T06:44:41.383Z,101.929
2022-11-30T06:45:41.473Z,102
2022-11-30T06:46:41.437Z,101.929
2022-11-30T06:47:41.475Z,102
2022-11-30T06:48:41.507Z,102
2022-11-30T06:49:41.538Z,102.143
2022-11-30T06:50:45.512Z,102
2022-11-30T06:51:41.599Z,102
2022-11-30T06:52:41.626Z,102
2022-11-30T06:53:41.662Z,102.214
2022-11-30T06:54:41.697Z,102.071
2022-11-30T06:55:41.724Z,102
2022-11-30T06:56:41.755Z,102.214
2022-11-30T06:57:41.771Z,102.143
2022-11-30T06:58:41.815Z,102.143
2022-11-30T06:59:41.837Z,102
2022-11-30T07:00:41.933Z,102.143
2022-11-30T07:01:41.898Z,102
2022-11-30T07:02:41.926Z,102.286
2022-11-30T07:03:42.045Z,102.071
2022-11-30T07:04:41.979Z,102
2022-11-30T07:05:42.006Z,102
2022-11-30T07:06:42.043Z,101.929
2022-11-30T07:07:42.130Z,102.214
2022-11-30T07:08:42.099Z,102
2022-11-30T07:09:42.146Z,102.286
2022-11-30T07:10:42.171Z,102
2022-11-30T07:11:42.202Z,102
2022-11-30T07:12:42.235Z,102.143
2022-11-30T07:13:42.263Z,102.143
2022-11-30T07:14:42.303Z,102.143
2022-11-30T07:15:42.342Z,102.071
2022-11-30T07:16:42.410Z,102
2022-11-30T07:17:42.392Z,102.214
2022-11-30T07:18:42.422Z,102.071
2022-11-30T07:19:42.459Z,101.929
2022-11-30T07:20:42.480Z,102.143
2022-11-30T07:21:42.514Z,102.071
2022-11-30T07:22:42.552Z,102.143
2022-11-30T07:23:42.586Z,101.929
2022-11-30T07:24:42.602Z,102.071
2022-11-30T07:25:42.643Z,102.214
2022-11-30T07:26:42.676Z,102.143
2022-11-30T07:27:42.710Z,101.929
2022-11-30T07:28:42.740Z,102.214
2022-11-30T07:29:42.798Z,102.214
2022-11-30T07:30:42.815Z,102.071
2022-11-30T07:31:42.883Z,102
2022-11-30T07:32:42.880Z,102.071
2022-11-30T07:33:42.913Z,102
2022-11-30T07:34:42.942Z,102.143
2022-11-30T07:35:42.973Z,102.143
2022-11-30T07:36:43.008Z,102.071
2022-11-30T07:37:43.031Z,102.143
2022-11-30T07:38:43.054Z,102.143
2022-11-30T07:39:43.082Z,102.143
2022-11-30T07:40:43.110Z,102.071
2022-11-30T07:41:43.149Z,102.214
2022-11-30T07:42:43.191Z,102.214
2022-11-30T07:43:43.213Z,102
2022-11-30T07:44:43.241Z,102
2022-11-30T07:45:43.294Z,102.214
2022-11-30T07:46:43.317Z,102
2022-11-30T07:47:43.327Z,102
2022-11-30T07:48:43.361Z,102
2022-11-30T07:49:43.391Z,102.143
2022-11-30T07:50:43.416Z,102.143
2022-11-30T07:51:43.455Z,102
2022-11-30T07:52:43.489Z,102.071
2022-11-30T07:53:43.517Z,102.143
2022-11-30T07:54:43.555Z,102.143
2022-11-30T07:55:43.584Z,102.214
2022-11-30T07:56:43.621Z,102.214
2022-11-30T07:57:43.655Z,102.214
2022-11-30T07:58:43.686Z,102
2022-11-30T07:59:43.709Z,102.214
2022-11-30T08:00:43.826Z,102.214
2022-11-30T08:01:43.839Z,102.071
2022-11-30T08:02:43.795Z,102
2022-11-30T08:03:43.826Z,102.286
2022-11-30T08:04:43.933Z,102.214
2022-11-30T08:05:43.890Z,102.143
2022-11-30T08:06:43.905Z,102.143
2022-11-30T08:07:43.969Z,102.143
2022-11-30T08:08:43.960Z,102
2022-11-30T08:09:43.996Z,102.214
2022-11-30T08:10:44.033Z,102.286
2022-11-30T08:11:44.075Z,102.143
2022-11-30T08:12:44.141Z,102.286
2022-11-30T08:13:44.127Z,102.286
2022-11-30T08:15:03.623Z,102.143
2022-11-30T08:15:44.188Z,102.286
2022-11-30T08:16:44.323Z,102.286
2022-11-30T08:17:44.249Z,102
2022-11-30T08:18:44.289Z,102.143
2022-11-30T08:19:44.328Z,102.143
2022-11-30T08:20:49.639Z,102
2022-11-30T08:21:44.380Z,102
2022-11-30T08:22:44.416Z,102.286
2022-11-30T08:23:44.462Z,102.143
2022-11-30T08:24:44.468Z,102
2022-11-30T08:25:44.496Z,102.143
2022-11-30T08:26:44.535Z,102.143
2022-11-30T08:27:44.569Z,102
2022-11-30T08:28:44.602Z,102.286
2022-11-30T08:29:44.625Z,102.143
2022-11-30T08:30:44.683Z,102.143
2022-11-30T08:31:44.695Z,102
2022-11-30T08:32:44.724Z,102
2022-11-30T08:33:44.763Z,102
2022-11-30T08:34:45.049Z,102
2022-11-30T08:35:44.817Z,102.143
2022-11-30T08:36:47.175Z,102.357
2022-11-30T08:37:44.881Z,102
2022-11-30T08:38:44.925Z,102.143
2022-11-30T08:39:44.945Z,102.143
2022-11-30T08:40:45.007Z,102.071
2022-11-30T08:41:45.033Z,102.143
2022-11-30T08:42:45.063Z,102.143
2022-11-30T08:43:45.093Z,102.214
2022-11-30T08:44:45.114Z,102.143
2022-11-30T08:45:45.272Z,102.214
2022-11-30T08:46:52.463Z,102.143
2022-11-30T08:47:45.199Z,102.071
2022-11-30T08:48:45.228Z,102.071
2022-11-30T08:49:45.249Z,102.214
2022-11-30T08:50:45.284Z,102.357
2022-11-30T08:52:16.035Z,102.071
2022-11-30T08:52:45.345Z,102.357
2022-11-30T08:53:45.378Z,102.214
2022-11-30T08:55:45.432Z,102.143
2022-11-30T08:56:45.465Z,102.214
2022-11-30T08:57:45.495Z,101.929
2022-11-30T08:58:45.527Z,102.143
2022-11-30T08:59:45.559Z,102.071
2022-11-30T09:00:45.587Z,102.143
2022-11-30T09:01:45.619Z,102.214
2022-11-30T09:02:45.720Z,102.214
2022-11-30T09:03:45.694Z,102.429
2022-11-30T09:04:45.728Z,102.429
2022-11-30T09:05:45.757Z,102.071
2022-11-30T09:06:45.790Z,102.143
2022-11-30T09:07:45.928Z,102.286
2022-11-30T09:08:45.861Z,102.071
2022-11-30T09:09:45.872Z,102.143
2022-11-30T09:10:45.914Z,102.071
2022-11-30T09:11:45.937Z,102.143
2022-11-30T09:12:45.967Z,102.071
2022-11-30T09:13:45.993Z,102.071
2022-11-30T09:14:49.661Z,102.143
2022-11-30T09:15:46.086Z,102.143
2022-11-30T09:16:46.083Z,102.143
2022-11-30T09:17:46.111Z,102
2022-11-30T09:18:46.139Z,102.143
2022-11-30T09:19:46.170Z,102
2022-11-30T09:20:46.192Z,102.286
2022-11-30T09:21:51.500Z,102.143
2022-11-30T09:22:46.259Z,102.071
2022-11-30T09:23:46.289Z,102.143
2022-11-30T09:24:46.515Z,102.214
2022-11-30T09:25:46.346Z,102.429
2022-11-30T09:26:46.385Z,102.071
2022-11-30T09:27:46.412Z,102.214
2022-11-30T09:28:46.430Z,102.071
2022-11-30T09:29:46.465Z,102.143
2022-11-30T09:30:46.517Z,102.214
2022-11-30T09:31:46.532Z,102.143
2022-11-30T09:32:46.561Z,102.071
2022-11-30T09:33:46.599Z,102.143
2022-11-30T09:34:46.808Z,102.214
2022-11-30T09:35:46.658Z,102.143
2022-11-30T09:36:46.692Z,102.071
2022-11-30T09:37:46.734Z,102.143
2022-11-30T09:38:46.762Z,102.143
2022-11-30T09:39:46.783Z,102.071
2022-11-30T09:40:46.807Z,102.143
2022-11-30T09:41:46.839Z,102.143
2022-11-30T09:42:46.881Z,102.143
2022-11-30T09:43:46.895Z,102.143
2022-11-30T09:44:47.150Z,102.214
2022-11-30T09:45:47.024Z,102.143
2022-11-30T09:46:46.997Z,102.143
2022-11-30T09:47:47.028Z,102.143
2022-11-30T09:48:47.082Z,102.143
2022-11-30T09:49:47.097Z,102.143
2022-11-30T09:50:47.137Z,102.143
2022-11-30T09:51:47.164Z,102.143
2022-11-30T09:52:47.192Z,102.143
2022-11-30T09:53:47.239Z,102.071
2022-11-30T09:54:47.447Z,102.143
2022-11-30T09:55:47.277Z,102.143
2022-11-30T09:56:47.308Z,102.143
2022-11-30T09:57:47.353Z,102.143
2022-11-30T09:58:47.366Z,102.143
2022-11-30T09:59:47.400Z,102
2022-11-30T10:00:47.420Z,102.143
2022-11-30T10:01:52.074Z,102.143
2022-11-30T10:02:47.593Z,102.143
2022-11-30T10:03:47.527Z,102.143
2022-11-30T10:04:47.728Z,102.143
2022-11-30T10:05:47.573Z,102.143
2022-11-30T10:06:47.606Z,102.214
2022-11-30T10:07:47.721Z,102.143
2022-11-30T10:08:50.709Z,102.214
2022-11-30T10:10:02.896Z,102.143
2022-11-30T10:10:47.754Z,102
2022-11-30T10:11:47.783Z,102.214
2022-11-30T10:12:47.819Z,102.143
2022-11-30T10:13:47.856Z,102.143
2022-11-30T10:14:48.109Z,102
2022-11-30T10:15:47.939Z,102.214
2022-11-30T10:16:47.940Z,102.143
2022-11-30T10:17:47.971Z,102.214
2022-11-30T10:18:47.999Z,102.214
2022-11-30T10:19:48.034Z,102.143
2022-11-30T10:20:48.063Z,102.143
2022-11-30T10:21:48.091Z,102.143
2022-11-30T10:22:48.118Z,102.143
2022-11-30T10:23:48.143Z,102.214
2022-11-30T10:24:48.623Z,102.143
2022-11-30T10:25:48.201Z,102.214
2022-11-30T10:26:48.237Z,102.214
2022-11-30T10:27:48.262Z,102.214
2022-11-30T10:28:48.859Z,102.214
2022-11-30T10:29:48.327Z,102.071
2022-11-30T10:30:48.383Z,102.286
2022-11-30T10:31:48.384Z,102.214
2022-11-30T10:32:48.423Z,102.286
2022-11-30T10:33:48.456Z,102.143
2022-11-30T10:34:48.837Z,102.143
2022-11-30T10:35:48.515Z,102.214
2022-11-30T10:36:48.543Z,102.286
2022-11-30T10:37:48.571Z,102.143
2022-11-30T10:38:48.606Z,102.286
2022-11-30T10:39:48.648Z,102.286
2022-11-30T10:40:48.675Z,102.286
2022-11-30T10:41:48.709Z,102.071
2022-11-30T10:42:48.747Z,102.286
2022-11-30T10:43:48.786Z,102.286
2022-11-30T10:44:49.159Z,102.214
2022-11-30T10:45:48.848Z,102.143
2022-11-30T10:46:49.041Z,102.286
2022-11-30T10:47:48.917Z,102.143
2022-11-30T10:48:48.952Z,102.143
2022-11-30T10:49:48.984Z,102.214
2022-11-30T10:50:49.013Z,102.286
2022-11-30T10:51:49.046Z,102.214
2022-11-30T10:52:49.079Z,102.286
2022-11-30T10:53:49.108Z,102.286
2022-11-30T10:54:49.398Z,102.143
2022-11-30T10:55:49.172Z,102.286
2022-11-30T10:56:49.215Z,102.071
2022-11-30T10:57:49.245Z,102.286
2022-11-30T10:58:49.273Z,102.286
2022-11-30T10:59:49.725Z,102.286
2022-11-30T11:00:49.340Z,102.214
2022-11-30T11:01:49.471Z,102.357
2022-11-30T11:02:49.469Z,102.286
2022-11-30T11:03:49.471Z,102.143
2022-11-30T11:04:49.466Z,102.286
2022-11-30T11:05:49.486Z,102
2022-11-30T11:06:49.566Z,102.357
2022-11-30T11:07:49.616Z,102.286
2022-11-30T11:08:49.615Z,102.286
2022-11-30T11:09:49.852Z,102.357
2022-11-30T11:10:49.663Z,102.214
2022-11-30T11:11:49.682Z,102.286
2022-11-30T11:12:49.712Z,102.214
2022-11-30T11:13:49.729Z,102.357
2022-11-30T11:14:49.763Z,102.286
2022-11-30T11:15:49.846Z,102.357
2022-11-30T11:16:49.834Z,102.214
2022-11-30T11:17:49.866Z,102.071
2022-11-30T11:18:49.902Z,102.214
2022-11-30T11:19:50.230Z,102.214
2022-11-30T11:20:53.965Z,102.357
2022-11-30T11:21:49.999Z,102.071
2022-11-30T11:22:50.031Z,102.214
2022-11-30T11:23:50.058Z,102.214
2022-11-30T11:24:50.097Z,102.286
2022-11-30T11:25:50.126Z,102.286
2022-11-30T11:26:50.157Z,102.357
2022-11-30T11:27:50.190Z,102.286
2022-11-30T11:28:50.239Z,102.357
2022-11-30T11:29:50.253Z,102.286
2022-11-30T11:30:50.305Z,102.286
2022-11-30T11:31:50.329Z,102.214
2022-11-30T11:32:50.360Z,102.214
2022-11-30T11:33:50.388Z,102.286
2022-11-30T11:34:51.402Z,102.214
2022-11-30T11:35:50.452Z,102.357
2022-11-30T11:36:50.478Z,102.214
2022-11-30T11:37:50.511Z,102.357
2022-11-30T11:38:50.551Z,102.214
2022-11-30T11:39:50.581Z,102.357
2022-11-30T11:40:50.617Z,102.214
2022-11-30T11:41:50.643Z,102.214
2022-11-30T11:42:50.677Z,102.214
2022-11-30T11:43:50.722Z,102.214
2022-11-30T11:44:50.749Z,102.286
2022-11-30T11:45:50.780Z,102.357
2022-11-30T11:46:50.931Z,102.357
2022-11-30T11:47:50.836Z,102.214
2022-11-30T11:48:50.887Z,102.071
2022-11-30T11:49:50.905Z,102.214
2022-11-30T11:51:06.257Z,102.214
2022-11-30T11:51:50.972Z,102.286
2022-11-30T11:52:51.003Z,102.286
2022-11-30T11:53:53.601Z,102.214
2022-11-30T11:54:51.068Z,102.286
2022-11-30T11:55:51.110Z,102.286
2022-11-30T11:56:51.135Z,102.214
2022-11-30T11:57:51.165Z,102.357
2022-11-30T11:58:51.204Z,102.286
2022-11-30T11:59:51.233Z,102.357
2022-11-30T12:00:51.263Z,102.214
2022-11-30T12:01:51.296Z,102.286
2022-11-30T12:02:51.342Z,102.143
2022-11-30T12:03:51.450Z,102.286
2022-11-30T12:04:51.382Z,102.286
2022-11-30T12:05:51.412Z,102.286
2022-11-30T12:06:51.439Z,102.286
2022-11-30T12:07:51.527Z,102.357
2022-11-30T12:08:51.498Z,102.143
2022-11-30T12:09:51.531Z,102.286
2022-11-30T12:10:52.789Z,102.286
2022-11-30T12:11:51.596Z,102.286
2022-11-30T12:12:54.852Z,102.214
2022-11-30T12:13:51.651Z,102.286
2022-11-30T12:14:51.684Z,102.214
2022-11-30T12:15:51.784Z,102.286
2022-11-30T12:16:51.745Z,102.214
2022-11-30T12:17:51.771Z,102.286
2022-11-30T12:18:51.799Z,102.214
2022-11-30T12:19:51.838Z,102.286
2022-11-30T12:20:51.870Z,102.143
2022-11-30T12:21:51.902Z,102.357
2022-11-30T12:22:51.936Z,102.286
2022-11-30T12:23:51.966Z,102.214
2022-11-30T12:24:52.000Z,102.214
2022-11-30T12:25:52.023Z,102.214
2022-11-30T12:26:52.060Z,102.357